createdAt,value
2022-08-30T00:01:34.329Z,100.00
2022-08-30T00:04:05.424Z,100.00
2022-08-30T00:06:34.288Z,100.00
2022-08-30T00:09:03.691Z,100.00
2022-08-30T00:11:31.536Z,100.00
2022-08-30T00:14:00.282Z,100.00
2022-08-30T00:16:28.278Z,100.00
2022-08-30T00:18:57.086Z,100.00
2022-08-30T00:21:27.136Z,100.00
2022-08-30T00:23:55.048Z,100.00
2022-08-30T00:26:27.613Z,100.00
2022-08-30T00:28:55.570Z,100.00
2022-08-30T00:31:23.415Z,100.00
2022-08-30T00:33:51.423Z,100.00
2022-08-30T00:36:19.248Z,100.00
2022-08-30T00:38:47.123Z,100.00
2022-08-30T00:41:15.185Z,100.00
2022-08-30T00:43:44.400Z,100.00
2022-08-30T00:46:12.132Z,100.00
2022-08-30T00:48:42.698Z,100.00
2022-08-30T00:51:12.998Z,100.00
2022-08-30T00:53:45.049Z,100.00
2022-08-30T00:56:14.406Z,100.00
2022-08-30T00:58:45.889Z,100.00
2022-08-30T01:01:14.147Z,100.00
2022-08-30T01:03:43.281Z,100.00
2022-08-30T01:06:11.618Z,100.00
2022-08-30T01:08:39.795Z,100.00
2022-08-30T01:11:07.600Z,100.00
2022-08-30T01:13:36.031Z,100.00
2022-08-30T01:16:06.328Z,100.00
2022-08-30T01:18:39.662Z,100.00
2022-08-30T01:21:15.592Z,100.00
2022-08-30T01:23:46.638Z,100.00
2022-08-30T01:26:17.330Z,100.00
2022-08-30T01:28:48.856Z,100.00
2022-08-30T01:31:17.154Z,100.00
2022-08-30T01:33:45.042Z,100.00
2022-08-30T01:36:14.052Z,100.00
2022-08-30T01:38:48.580Z,100.00
2022-08-30T01:41:19.701Z,100.00
2022-08-30T01:43:48.775Z,100.00
2022-08-30T01:46:18.695Z,100.00
2022-08-30T01:48:53.114Z,100.00
2022-08-30T01:51:23.622Z,100.00
2022-08-30T01:53:53.017Z,100.00
2022-08-30T01:56:20.966Z,100.00
2022-08-30T01:58:48.659Z,100.00
2022-08-30T02:01:19.769Z,100.00
2022-08-30T02:03:48.636Z,100.00
2022-08-30T02:06:19.339Z,100.00
2022-08-30T02:08:47.687Z,100.00
2022-08-30T02:11:18.048Z,100.00
2022-08-30T02:13:46.760Z,100.00
2022-08-30T02:16:16.813Z,100.00
2022-08-30T02:18:44.783Z,100.00
2022-08-30T02:21:13.979Z,100.00
2022-08-30T02:23:42.584Z,100.00
2022-08-30T02:26:11.244Z,100.00
2022-08-30T02:28:42.881Z,100.00
2022-08-30T02:31:20.765Z,100.00
2022-08-30T02:33:50.383Z,100.00
2022-08-30T02:36:19.170Z,100.00
2022-08-30T02:38:47.288Z,100.00
2022-08-30T02:41:15.247Z,100.00
2022-08-30T02:43:45.528Z,100.00
2022-08-30T02:46:14.389Z,100.00
2022-08-30T02:48:42.850Z,100.00
2022-08-30T02:51:12.456Z,100.00
2022-08-30T02:53:40.795Z,100.00
2022-08-30T02:56:08.798Z,100.00
2022-08-30T02:58:36.547Z,100.00
2022-08-30T03:01:06.577Z,100.00
2022-08-30T03:03:34.630Z,100.00
2022-08-30T03:06:03.778Z,100.00
2022-08-30T03:08:31.855Z,100.00
2022-08-30T03:11:00.005Z,100.00
2022-08-30T03:13:28.197Z,100.00
2022-08-30T03:15:56.203Z,100.00
2022-08-30T03:18:26.605Z,100.00
2022-08-30T03:20:55.104Z,100.00
2022-08-30T03:23:24.124Z,100.00
2022-08-30T03:25:53.433Z,100.00
2022-08-30T03:28:21.576Z,100.00
2022-08-30T03:30:50.170Z,100.00
2022-08-30T03:33:18.724Z,100.00
2022-08-30T03:35:51.054Z,100.00
2022-08-30T03:38:19.737Z,100.00
2022-08-30T03:40:48.380Z,100.00
2022-08-30T03:43:16.185Z,100.00
2022-08-30T03:45:44.957Z,100.00
2022-08-30T03:48:12.938Z,100.00
2022-08-30T03:50:41.556Z,100.00
2022-08-30T03:53:12.172Z,100.00
2022-08-30T03:55:39.958Z,100.00
2022-08-30T03:58:08.564Z,100.00
2022-08-30T04:00:36.344Z,100.00
2022-08-30T04:03:04.897Z,100.00
2022-08-30T04:05:32.883Z,100.00
2022-08-30T04:08:01.386Z,100.00
2022-08-30T04:10:34.943Z,100.00
2022-08-30T04:13:03.822Z,100.00
2022-08-30T04:15:31.596Z,100.00
2022-08-30T04:17:59.770Z,100.00
2022-08-30T04:20:27.504Z,100.00
2022-08-30T04:22:55.609Z,100.00
2022-08-30T04:25:23.402Z,100.00
2022-08-30T04:27:55.906Z,100.00
2022-08-30T04:30:23.740Z,100.00
2022-08-30T04:32:54.510Z,100.00
2022-08-30T04:35:26.605Z,100.00
2022-08-30T04:37:54.595Z,100.00
2022-08-30T04:40:23.246Z,100.00
2022-08-30T04:42:54.608Z,100.00
2022-08-30T04:45:23.209Z,100.00
2022-08-30T04:47:51.071Z,100.00
2022-08-30T04:50:20.992Z,100.00
2022-08-30T04:52:49.487Z,100.00
2022-08-30T04:55:20.231Z,100.00
2022-08-30T04:57:48.357Z,100.00
2022-08-30T05:00:20.651Z,100.00
2022-08-30T05:02:50.050Z,100.00
2022-08-30T05:05:35.995Z,100.00
2022-08-30T05:08:04.168Z,100.00
2022-08-30T05:10:32.091Z,100.00
2022-08-30T05:13:00.068Z,100.00
2022-08-30T05:15:31.435Z,100.00
2022-08-30T05:17:59.434Z,100.00
2022-08-30T05:20:27.911Z,100.00
2022-08-30T05:22:55.558Z,100.00
2022-08-30T05:25:26.145Z,100.00
2022-08-30T05:27:54.391Z,100.00
2022-08-30T05:30:24.387Z,100.00
2022-08-30T05:32:54.083Z,100.00
2022-08-30T05:35:25.774Z,100.00
2022-08-30T05:37:54.577Z,100.00
2022-08-30T05:40:23.894Z,100.00
2022-08-30T05:42:52.587Z,100.00
2022-08-30T05:45:20.573Z,100.00
2022-08-30T05:47:48.767Z,100.00
2022-08-30T05:50:17.926Z,100.00
2022-08-30T05:52:46.210Z,100.00
2022-08-30T05:55:15.011Z,100.00
2022-08-30T05:57:42.872Z,100.00
2022-08-30T06:00:14.339Z,100.00
2022-08-30T06:02:42.404Z,100.00
2022-08-30T06:05:14.168Z,100.00
2022-08-30T06:07:43.961Z,100.00
2022-08-30T06:10:12.276Z,100.00
2022-08-30T06:12:40.090Z,100.00
2022-08-30T06:15:08.933Z,100.00
2022-08-30T06:17:36.722Z,100.00
2022-08-30T06:20:04.915Z,100.00
2022-08-30T06:22:32.449Z,100.00
2022-08-30T06:25:01.528Z,100.00
2022-08-30T06:27:29.122Z,100.00
2022-08-30T06:29:56.893Z,100.00
2022-08-30T06:32:24.483Z,100.00
2022-08-30T06:34:52.013Z,100.00
2022-08-30T06:37:29.804Z,100.00
2022-08-30T06:39:58.396Z,100.00
2022-08-30T06:42:31.684Z,100.00
2022-08-30T06:44:59.524Z,100.00
2022-08-30T06:47:27.088Z,100.00
2022-08-30T06:49:54.646Z,100.00
2022-08-30T06:52:22.609Z,100.00
2022-08-30T06:54:50.561Z,100.00
2022-08-30T06:57:18.883Z,100.00
2022-08-30T06:59:47.786Z,100.00
2022-08-30T07:02:15.440Z,100.00
2022-08-30T07:04:43.077Z,100.00
2022-08-30T07:07:12.678Z,100.00
2022-08-30T07:09:43.136Z,100.00
2022-08-30T07:12:11.492Z,100.00
2022-08-30T07:14:40.073Z,100.00
2022-08-30T07:17:23.608Z,100.00
2022-08-30T07:19:51.247Z,99.71
2022-08-30T07:22:18.839Z,98.16
2022-08-30T07:24:46.912Z,98.36
2022-08-30T07:27:14.907Z,94.08
2022-08-30T07:29:42.567Z,95.97
2022-08-30T07:32:11.555Z,95.64
2022-08-30T07:34:39.295Z,94.70
2022-08-30T07:37:06.972Z,93.16
2022-08-30T07:39:39.183Z,92.80
2022-08-30T07:42:12.199Z,92.11
2022-08-30T07:44:39.765Z,92.05
2022-08-30T07:47:16.793Z,91.75
2022-08-30T07:49:44.463Z,90.64
2022-08-30T07:52:12.027Z,89.28
2022-08-30T07:54:39.639Z,87.50
2022-08-30T07:57:07.301Z,87.42
2022-08-30T07:59:36.189Z,87.33
2022-08-30T08:02:04.110Z,87.23
2022-08-30T08:04:34.361Z,86.73
2022-08-30T08:07:01.922Z,83.79
2022-08-30T08:09:29.516Z,84.29
2022-08-30T08:11:57.403Z,81.57
2022-08-30T08:14:24.940Z,81.68
2022-08-30T08:16:52.493Z,80.98
2022-08-30T08:19:20.537Z,81.04
2022-08-30T08:21:59.405Z,80.87
2022-08-30T08:24:37.043Z,80.66
2022-08-30T08:27:04.726Z,78.84
2022-08-30T08:29:32.406Z,80.07
2022-08-30T08:32:00.141Z,77.81
2022-08-30T08:34:27.902Z,78.82
2022-08-30T08:36:56.874Z,78.43
2022-08-30T08:39:24.389Z,79.08
2022-08-30T08:41:57.225Z,77.36
2022-08-30T08:44:34.734Z,77.29
2022-08-30T08:47:11.038Z,75.18
2022-08-30T08:49:39.195Z,75.91
2022-08-30T08:52:27.066Z,74.77
2022-08-30T08:54:59.356Z,74.08
2022-08-30T08:57:35.617Z,74.74
2022-08-30T09:00:04.792Z,72.25
2022-08-30T09:02:39.171Z,71.75
2022-08-30T09:05:07.489Z,72.28
2022-08-30T09:07:39.531Z,71.96
2022-08-30T09:10:07.900Z,70.71
2022-08-30T09:12:35.806Z,70.67
2022-08-30T09:15:10.215Z,71.34
2022-08-30T09:17:51.814Z,69.75
2022-08-30T09:20:29.847Z,70.20
2022-08-30T09:22:59.445Z,70.65
2022-08-30T09:25:28.842Z,69.62
2022-08-30T09:28:10.800Z,69.10
2022-08-30T09:30:39.147Z,68.23
2022-08-30T09:33:08.317Z,70.06
2022-08-30T09:35:41.982Z,67.61
2022-08-30T09:38:13.061Z,68.84
2022-08-30T09:40:44.322Z,69.11
2022-08-30T09:43:21.343Z,67.38
2022-08-30T09:45:51.041Z,68.61
2022-08-30T09:48:30.083Z,66.66
2022-08-30T09:51:09.002Z,67.28
2022-08-30T09:56:21.831Z,65.97
2022-08-30T09:59:00.274Z,66.79
2022-08-30T10:01:31.340Z,66.55
2022-08-30T10:04:03.990Z,65.94
2022-08-30T10:06:36.629Z,65.45
2022-08-30T10:09:12.437Z,65.66
2022-08-30T10:11:44.618Z,64.20
2022-08-30T10:14:35.728Z,64.71
2022-08-30T10:17:09.768Z,64.58
2022-08-30T10:19:46.909Z,64.86
2022-08-30T10:22:17.863Z,63.87
2022-08-30T10:24:49.618Z,62.70
2022-08-30T10:27:20.936Z,62.41
2022-08-30T10:29:50.995Z,62.71
2022-08-30T10:32:21.906Z,62.73
2022-08-30T10:34:53.437Z,62.85
2022-08-30T10:37:23.607Z,61.49
2022-08-30T10:39:56.380Z,61.88
2022-08-30T10:42:27.211Z,60.88
2022-08-30T10:45:00.097Z,60.72
2022-08-30T10:47:33.156Z,59.77
2022-08-30T10:50:07.205Z,59.72
2022-08-30T10:52:40.530Z,59.92
2022-08-30T10:55:12.541Z,59.73
2022-08-30T10:57:42.889Z,58.15
2022-08-30T11:00:13.974Z,58.92
2022-08-30T11:03:28.629Z,59.89
2022-08-30T11:06:04.630Z,59.09
2022-08-30T11:08:45.596Z,57.67
2022-08-30T11:11:20.739Z,57.94
2022-08-30T11:13:49.975Z,57.31
2022-08-30T11:16:20.334Z,56.02
2022-08-30T11:18:51.199Z,57.47
2022-08-30T11:21:27.243Z,58.72
2022-08-30T11:24:02.445Z,57.31
2022-08-30T11:26:58.211Z,57.47
2022-08-30T11:29:35.456Z,56.90
2022-08-30T11:32:38.593Z,56.40
2022-08-30T11:35:07.990Z,57.25
2022-08-30T11:37:42.004Z,57.32
2022-08-30T11:40:18.960Z,58.07
2022-08-30T11:42:49.105Z,56.87
2022-08-30T11:45:55.455Z,55.85
2022-08-30T11:48:53.514Z,54.00
2022-08-30T11:51:39.048Z,53.92
2022-08-30T11:54:14.153Z,54.78
2022-08-30T11:56:49.351Z,53.59
2022-08-30T11:59:25.258Z,52.88
2022-08-30T12:01:53.124Z,54.83
2022-08-30T12:04:38.372Z,54.27
2022-08-30T12:07:07.925Z,54.76
2022-08-30T12:10:04.219Z,53.61
2022-08-30T12:12:56.045Z,52.67
2022-08-30T12:15:53.020Z,53.65
2022-08-30T12:18:28.193Z,53.52
2022-08-30T12:21:01.251Z,52.79
2022-08-30T12:23:36.808Z,53.44
2022-08-30T12:26:16.578Z,52.06
2022-08-30T12:28:46.163Z,51.03
2022-08-30T12:31:17.528Z,51.66
2022-08-30T12:33:48.930Z,51.61
2022-08-30T12:36:33.191Z,51.43
2022-08-30T12:39:09.682Z,51.76
2022-08-30T12:41:43.266Z,51.73
2022-08-30T12:44:15.598Z,51.79
2022-08-30T12:46:44.689Z,50.78
2022-08-30T12:49:14.415Z,49.66
2022-08-30T12:51:43.498Z,49.39
2022-08-30T12:54:17.963Z,48.61
2022-08-30T12:56:52.294Z,49.07
2022-08-30T12:59:39.637Z,49.81
2022-08-30T13:02:20.234Z,48.18
2022-08-30T13:04:51.060Z,48.38
2022-08-30T13:07:27.135Z,48.58
2022-08-30T13:10:02.996Z,46.86
2022-08-30T13:12:30.614Z,46.40
2022-08-30T13:15:14.415Z,45.34
2022-08-30T13:17:42.027Z,46.22
2022-08-30T13:20:24.618Z,46.10
2022-08-30T13:23:07.382Z,43.62
2022-08-30T13:25:38.152Z,42.11
2022-08-30T13:28:07.628Z,42.03
2022-08-30T13:30:36.100Z,41.41
2022-08-30T13:33:03.723Z,43.71
2022-08-30T13:35:32.989Z,43.51
2022-08-30T13:38:02.196Z,41.76
2022-08-30T13:40:30.366Z,41.17
2022-08-30T13:42:58.625Z,43.15
2022-08-30T13:45:42.280Z,45.25
2022-08-30T13:48:11.527Z,44.23
2022-08-30T13:50:41.075Z,42.92
2022-08-30T13:53:10.065Z,42.16
2022-08-30T13:55:37.706Z,41.36
2022-08-30T13:58:05.420Z,39.90
2022-08-30T14:00:37.459Z,38.63
2022-08-30T14:03:05.602Z,38.97
2022-08-30T14:06:04.710Z,38.63
2022-08-30T14:11:18.464Z,41.79
2022-08-30T14:16:35.838Z,39.39
2022-08-30T14:19:03.524Z,40.63
2022-08-30T14:21:33.463Z,42.63
2022-08-30T14:24:04.900Z,44.76
2022-08-30T14:26:35.168Z,41.58
2022-08-30T14:29:03.671Z,40.82
2022-08-30T14:31:32.859Z,40.60
2022-08-30T14:34:01.893Z,41.44
2022-08-30T14:36:31.348Z,42.11
2022-08-30T14:38:59.201Z,40.69
2022-08-30T14:41:28.178Z,40.30
2022-08-30T14:43:55.853Z,41.45
2022-08-30T14:46:25.689Z,40.78
2022-08-30T14:48:53.985Z,41.53
2022-08-30T14:51:23.248Z,42.89
2022-08-30T14:53:52.891Z,44.89
2022-08-30T14:56:23.291Z,45.71
2022-08-30T14:59:00.136Z,44.01
2022-08-30T15:01:28.869Z,41.36
2022-08-30T15:03:57.252Z,40.59
2022-08-30T15:06:26.520Z,41.69
2022-08-30T15:08:54.821Z,39.69
2022-08-30T15:11:25.615Z,38.54
2022-08-30T15:13:55.042Z,38.29
2022-08-30T15:16:24.988Z,39.25
2022-08-30T15:18:53.393Z,41.54
2022-08-30T15:21:25.632Z,40.35
2022-08-30T15:23:53.682Z,42.42
2022-08-30T15:26:21.954Z,39.04
2022-08-30T15:28:51.055Z,39.95
2022-08-30T15:31:22.321Z,39.21
2022-08-30T15:33:51.050Z,40.30
2022-08-30T15:36:18.698Z,39.77
2022-08-30T15:38:46.666Z,40.75
2022-08-30T15:41:14.228Z,37.88
2022-08-30T15:43:42.114Z,38.70
2022-08-30T15:46:17.933Z,38.73
2022-08-30T15:48:47.691Z,39.78
2022-08-30T15:51:17.389Z,41.25
2022-08-30T15:53:45.212Z,40.43
2022-08-30T15:56:13.095Z,40.55
2022-08-30T15:58:41.037Z,43.18
2022-08-30T16:01:09.151Z,42.33
2022-08-30T16:03:37.735Z,43.92
2022-08-30T16:06:11.839Z,43.76
2022-08-30T16:08:39.411Z,43.92
2022-08-30T16:11:07.157Z,44.89
2022-08-30T16:13:34.731Z,44.09
2022-08-30T16:16:02.850Z,42.40
2022-08-30T16:18:30.778Z,42.51
2022-08-30T16:21:03.782Z,41.34
2022-08-30T16:23:33.643Z,42.19
2022-08-30T16:26:02.397Z,40.79
2022-08-30T16:28:32.106Z,40.02
2022-08-30T16:30:59.782Z,40.95
2022-08-30T16:33:27.797Z,41.99
2022-08-30T16:35:57.013Z,39.99
2022-08-30T16:38:26.427Z,40.14
2022-08-30T16:40:56.558Z,39.84
2022-08-30T16:43:24.954Z,41.91
2022-08-30T16:45:53.772Z,41.26
2022-08-30T16:48:21.465Z,43.93
2022-08-30T16:50:49.173Z,46.29
2022-08-30T16:53:16.886Z,46.31
2022-08-30T16:55:44.692Z,48.32
2022-08-30T16:58:18.708Z,48.74
2022-08-30T17:00:48.955Z,49.94
2022-08-30T17:03:17.304Z,51.02
2022-08-30T17:05:45.105Z,50.61
2022-08-30T17:08:14.389Z,52.14
2022-08-30T17:10:43.847Z,52.11
2022-08-30T17:13:18.773Z,51.91
2022-08-30T17:15:47.972Z,51.83
2022-08-30T17:18:17.098Z,49.34
2022-08-30T17:20:46.204Z,49.67
2022-08-30T17:23:13.919Z,49.66
2022-08-30T17:25:41.843Z,52.75
2022-08-30T17:28:10.635Z,52.38
2022-08-30T17:30:39.555Z,53.39
2022-08-30T17:33:08.401Z,54.41
2022-08-30T17:35:36.050Z,54.31
2022-08-30T17:38:03.847Z,55.51
2022-08-30T17:40:31.408Z,58.09
2022-08-30T17:42:59.069Z,57.28
2022-08-30T17:45:26.755Z,58.96
2022-08-30T17:47:57.561Z,60.64
2022-08-30T17:50:28.126Z,61.45
2022-08-30T17:52:56.429Z,62.26
2022-08-30T17:55:24.070Z,61.23
2022-08-30T17:57:52.056Z,64.45
2022-08-30T18:00:20.040Z,63.68
2022-08-30T18:02:49.202Z,66.28
2022-08-30T18:05:18.249Z,65.86
2022-08-30T18:07:52.287Z,67.16
2022-08-30T18:10:20.081Z,67.12
2022-08-30T18:12:58.673Z,66.85
2022-08-30T18:15:26.237Z,67.37
2022-08-30T18:17:54.486Z,69.30
2022-08-30T18:20:23.422Z,70.37
2022-08-30T18:22:55.987Z,69.01
2022-08-30T18:25:23.820Z,68.48
2022-08-30T18:27:58.434Z,69.37
2022-08-30T18:30:34.074Z,70.09
2022-08-30T18:33:06.734Z,70.73
2022-08-30T18:35:37.721Z,71.77
2022-08-30T18:38:07.380Z,70.22
2022-08-30T18:40:35.502Z,70.29
2022-08-30T18:43:08.116Z,71.22
2022-08-30T18:45:36.907Z,73.74
2022-08-30T18:48:05.419Z,72.05
2022-08-30T18:50:34.152Z,73.93
2022-08-30T18:53:03.740Z,74.79
2022-08-30T18:55:32.249Z,73.57
2022-08-30T18:58:01.820Z,74.27
2022-08-30T19:00:30.844Z,73.89
2022-08-30T19:02:59.535Z,73.67
2022-08-30T19:05:28.138Z,73.10
2022-08-30T19:07:57.480Z,73.07
2022-08-30T19:10:28.507Z,73.00
2022-08-30T19:12:59.846Z,73.59
2022-08-30T19:15:27.985Z,74.62
2022-08-30T19:17:56.351Z,73.94
2022-08-30T19:20:25.190Z,74.36
2022-08-30T19:23:10.323Z,75.33
2022-08-30T19:25:42.610Z,73.87
2022-08-30T19:28:11.416Z,73.44
2022-08-30T19:30:40.131Z,74.69
2022-08-30T19:33:07.896Z,74.61
2022-08-30T19:35:39.826Z,74.92
2022-08-30T19:38:08.027Z,75.07
2022-08-30T19:40:36.196Z,74.57
2022-08-30T19:43:06.959Z,75.91
2022-08-30T19:45:36.013Z,75.09
2022-08-30T19:48:04.669Z,76.35
2022-08-30T19:50:32.858Z,76.83
2022-08-30T19:53:01.027Z,76.47
2022-08-30T19:55:31.301Z,76.53
2022-08-30T19:57:59.730Z,76.83
2022-08-30T20:00:32.367Z,78.11
2022-08-30T20:03:04.935Z,77.57
2022-08-30T20:05:34.487Z,77.87
2022-08-30T20:08:02.175Z,77.66
2022-08-30T20:10:30.256Z,78.74
2022-08-30T20:12:59.864Z,79.97
2022-08-30T20:15:29.099Z,79.87
2022-08-30T20:18:13.460Z,80.78
2022-08-30T20:20:48.082Z,80.27
2022-08-30T20:23:21.477Z,81.13
2022-08-30T20:25:52.144Z,81.14
2022-08-30T20:28:20.637Z,81.22
2022-08-30T20:30:54.060Z,80.94
2022-08-30T20:33:24.330Z,80.64
2022-08-30T20:35:53.095Z,81.92
2022-08-30T20:38:22.504Z,82.29
2022-08-30T20:40:52.338Z,84.00
2022-08-30T20:43:21.701Z,84.35
2022-08-30T20:45:52.186Z,84.39
2022-08-30T20:48:20.509Z,83.23
2022-08-30T20:50:48.354Z,84.86
2022-08-30T20:53:16.256Z,85.33
2022-08-30T20:55:45.504Z,85.06
2022-08-30T20:58:14.305Z,84.35
2022-08-30T21:00:45.619Z,84.77
2022-08-30T21:03:26.552Z,87.23
2022-08-30T21:05:56.167Z,86.23
2022-08-30T21:08:24.993Z,87.09
2022-08-30T21:10:53.068Z,87.79
2022-08-30T21:13:21.821Z,88.42
2022-08-30T21:15:52.426Z,87.45
2022-08-30T21:18:23.234Z,89.19
2022-08-30T21:20:50.875Z,88.49
2022-08-30T21:23:20.705Z,89.07
2022-08-30T21:25:48.923Z,89.75
2022-08-30T21:28:17.631Z,88.45
2022-08-30T21:30:45.975Z,88.91
2022-08-30T21:33:13.959Z,90.48
2022-08-30T21:36:01.272Z,91.53
2022-08-30T21:38:29.639Z,91.32
2022-08-30T21:40:57.403Z,89.66
2022-08-30T21:43:25.676Z,90.67
2022-08-30T21:45:53.673Z,91.73
2022-08-30T21:48:22.153Z,91.86
2022-08-30T21:50:55.390Z,90.23
2022-08-30T21:53:23.339Z,91.79
2022-08-30T21:55:50.938Z,91.87
2022-08-30T21:58:19.399Z,90.34
2022-08-30T22:00:47.182Z,90.73
2022-08-30T22:03:14.920Z,92.55
2022-08-30T22:05:46.122Z,92.61
2022-08-30T22:08:18.380Z,93.01
2022-08-30T22:10:46.531Z,93.08
2022-08-30T22:13:15.165Z,91.60
2022-08-30T22:15:45.395Z,93.10
2022-08-30T22:18:13.377Z,91.72
2022-08-30T22:20:42.498Z,92.82
2022-08-30T22:23:12.258Z,92.79
2022-08-30T22:25:48.228Z,90.58
2022-08-30T22:28:16.123Z,92.40
2022-08-30T22:30:43.770Z,91.55
2022-08-30T22:33:11.799Z,91.57
2022-08-30T22:35:40.007Z,90.52
2022-08-30T22:38:08.835Z,91.37
2022-08-30T22:40:37.600Z,89.17
2022-08-30T22:43:06.596Z,90.20
2022-08-30T22:45:34.205Z,91.32
2022-08-30T22:48:01.979Z,90.42
2022-08-30T22:50:29.641Z,90.28
2022-08-30T22:52:57.635Z,89.13
2022-08-30T22:55:26.109Z,89.32
2022-08-30T22:57:53.888Z,89.54
2022-08-30T23:00:23.798Z,89.50
2022-08-30T23:02:54.456Z,88.03
2022-08-30T23:05:23.666Z,89.37
2022-08-30T23:07:53.510Z,90.06
2022-08-30T23:10:27.805Z,89.94
2022-08-30T23:13:56.977Z,91.45
2022-08-30T23:16:26.420Z,90.86
2022-08-30T23:18:54.215Z,89.11
2022-08-30T23:21:24.876Z,89.99
2022-08-30T23:24:12.105Z,89.74
2022-08-30T23:26:58.411Z,89.19
2022-08-30T23:29:44.178Z,88.90
2022-08-30T23:32:31.369Z,90.57
2022-08-30T23:35:17.255Z,90.39
2022-08-30T23:38:02.663Z,91.24
2022-08-30T23:40:47.774Z,90.96
2022-08-30T23:43:32.939Z,91.46
2022-08-30T23:46:19.065Z,90.00
2022-08-30T23:49:09.706Z,89.33
2022-08-30T23:51:57.182Z,90.86
2022-08-30T23:54:42.995Z,88.46
2022-08-30T23:57:28.465Z,89.89
